sensor_id;sensor_type;location;lat;lon;timestamp;pressure;altitude;pressure_sealevel;temperature;humidity
9822;BME280;4950;46.042;14.472;2023-11-19T00:02:19;98652.75;;;4.63;79.43
9822;BME280;4950;46.042;14.472;2023-11-19T00:04:47;98648.00;;;4.58;79.68
9822;BME280;4950;46.042;14.472;2023-11-19T00:07:13;98652.22;;;4.59;79.76
9822;BME280;4950;46.042;14.472;2023-11-19T00:09:41;98646.22;;;4.59;80.04
9822;BME280;4950;46.042;14.472;2023-11-19T00:12:09;98644.72;;;4.56;80.03
9822;BME280;4950;46.042;14.472;2023-11-19T00:14:35;98647.88;;;4.60;80.09
9822;BME280;4950;46.042;14.472;2023-11-19T00:17:03;98638.88;;;4.54;79.92
9822;BME280;4950;46.042;14.472;2023-11-19T00:19:30;98631.28;;;4.64;79.61
9822;BME280;4950;46.042;14.472;2023-11-19T00:21:57;98623.66;;;4.62;79.41
9822;BME280;4950;46.042;14.472;2023-11-19T00:24:28;98623.44;;;4.43;79.57
9822;BME280;4950;46.042;14.472;2023-11-19T00:26:54;98621.47;;;4.58;79.92
9822;BME280;4950;46.042;14.472;2023-11-19T00:29:21;98608.94;;;4.64;79.52
9822;BME280;4950;46.042;14.472;2023-11-19T00:31:48;98608.03;;;4.65;79.79
9822;BME280;4950;46.042;14.472;2023-11-19T00:34:16;98611.06;;;4.59;79.77
9822;BME280;4950;46.042;14.472;2023-11-19T00:36:46;98615.16;;;4.50;80.27
9822;BME280;4950;46.042;14.472;2023-11-19T00:39:13;98607.66;;;4.59;79.54
9822;BME280;4950;46.042;14.472;2023-11-19T00:41:41;98610.94;;;4.61;79.30
9822;BME280;4950;46.042;14.472;2023-11-19T00:44:07;98608.03;;;4.54;79.86
9822;BME280;4950;46.042;14.472;2023-11-19T00:46:34;98617.59;;;4.52;79.73
9822;BME280;4950;46.042;14.472;2023-11-19T00:49:02;98625.31;;;4.52;79.63
9822;BME280;4950;46.042;14.472;2023-11-19T00:51:30;98633.50;;;4.46;79.54
9822;BME280;4950;46.042;14.472;2023-11-19T00:53:57;98628.59;;;4.54;79.37
9822;BME280;4950;46.042;14.472;2023-11-19T00:56:24;98630.94;;;4.46;79.43
9822;BME280;4950;46.042;14.472;2023-11-19T00:58:51;98623.81;;;4.49;79.49
9822;BME280;4950;46.042;14.472;2023-11-19T01:01:17;98624.38;;;4.53;79.23
9822;BME280;4950;46.042;14.472;2023-11-19T01:03:44;98626.81;;;4.54;78.62
9822;BME280;4950;46.042;14.472;2023-11-19T01:06:11;98620.75;;;4.33;79.37
9822;BME280;4950;46.042;14.472;2023-11-19T01:08:42;98599.84;;;4.26;80.01
9822;BME280;4950;46.042;14.472;2023-11-19T01:11:09;98603.78;;;4.08;80.75
9822;BME280;4950;46.042;14.472;2023-11-19T01:13:35;98610.06;;;3.92;81.24
9822;BME280;4950;46.042;14.472;2023-11-19T01:16:02;98608.66;;;3.88;81.29
9822;BME280;4950;46.042;14.472;2023-11-19T01:18:29;98588.69;;;3.92;81.42
9822;BME280;4950;46.042;14.472;2023-11-19T01:20:55;98584.75;;;3.99;81.36
9822;BME280;4950;46.042;14.472;2023-11-19T01:23:22;98580.44;;;4.11;80.98
9822;BME280;4950;46.042;14.472;2023-11-19T01:25:50;98567.13;;;4.17;80.71
9822;BME280;4950;46.042;14.472;2023-11-19T01:28:17;98569.00;;;4.15;80.28
9822;BME280;4950;46.042;14.472;2023-11-19T01:30:44;98567.34;;;4.14;80.21
9822;BME280;4950;46.042;14.472;2023-11-19T01:33:10;98565.94;;;4.10;80.47
9822;BME280;4950;46.042;14.472;2023-11-19T01:35:37;98565.38;;;4.06;80.49
9822;BME280;4950;46.042;14.472;2023-11-19T01:38:04;98566.78;;;4.10;80.41
9822;BME280;4950;46.042;14.472;2023-11-19T01:40:31;98561.50;;;4.12;80.59
9822;BME280;4950;46.042;14.472;2023-11-19T01:42:59;98553.59;;;4.15;80.16
9822;BME280;4950;46.042;14.472;2023-11-19T01:45:28;98549.63;;;4.22;80.27
9822;BME280;4950;46.042;14.472;2023-11-19T01:47:56;98543.19;;;4.17;80.38
9822;BME280;4950;46.042;14.472;2023-11-19T01:50:23;98529.28;;;4.08;81.19
9822;BME280;4950;46.042;14.472;2023-11-19T01:52:51;98526.72;;;4.08;80.86
9822;BME280;4950;46.042;14.472;2023-11-19T01:55:19;98525.78;;;4.09;80.40
9822;BME280;4950;46.042;14.472;2023-11-19T01:57:47;98516.44;;;4.08;80.55
9822;BME280;4950;46.042;14.472;2023-11-19T02:00:16;98526.72;;;4.19;80.05
9822;BME280;4950;46.042;14.472;2023-11-19T02:02:45;98527.78;;;4.28;79.34
9822;BME280;4950;46.042;14.472;2023-11-19T02:05:13;98530.47;;;4.15;79.96
9822;BME280;4950;46.042;14.472;2023-11-19T02:07:40;98531.38;;;4.14;80.24
9822;BME280;4950;46.042;14.472;2023-11-19T02:10:07;98529.28;;;4.08;80.10
9822;BME280;4950;46.042;14.472;2023-11-19T02:12:38;98518.44;;;4.04;80.53
9822;BME280;4950;46.042;14.472;2023-11-19T02:15:08;98526.72;;;4.08;80.43
9822;BME280;4950;46.042;14.472;2023-11-19T02:17:37;98529.88;;;4.11;79.86
9822;BME280;4950;46.042;14.472;2023-11-19T02:20:04;98531.28;;;4.04;80.36
9822;BME280;4950;46.042;14.472;2023-11-19T02:22:34;98532.91;;;3.94;80.92
9822;BME280;4950;46.042;14.472;2023-11-19T02:25:04;98511.75;;;3.90;80.62
9822;BME280;4950;46.042;14.472;2023-11-19T02:27:51;98522.53;;;3.95;80.45
9822;BME280;4950;46.042;14.472;2023-11-19T02:30:20;98511.06;;;3.88;80.87
9822;BME280;4950;46.042;14.472;2023-11-19T02:32:51;98505.22;;;3.86;80.56
9822;BME280;4950;46.042;14.472;2023-11-19T02:35:17;98499.06;;;3.89;80.61
9822;BME280;4950;46.042;14.472;2023-11-19T02:37:44;98492.16;;;3.78;80.85
9822;BME280;4950;46.042;14.472;2023-11-19T02:40:11;98486.56;;;3.84;80.58
9822;BME280;4950;46.042;14.472;2023-11-19T02:42:38;98481.88;;;3.78;80.74
9822;BME280;4950;46.042;14.472;2023-11-19T02:45:08;98474.41;;;3.52;81.01
9822;BME280;4950;46.042;14.472;2023-11-19T02:47:39;98463.75;;;3.34;81.93
9822;BME280;4950;46.042;14.472;2023-11-19T02:50:06;98461.50;;;3.30;82.26
9822;BME280;4950;46.042;14.472;2023-11-19T02:52:40;98452.88;;;3.20;81.51
9822;BME280;4950;46.042;14.472;2023-11-19T02:55:07;98447.44;;;2.65;84.21
9822;BME280;4950;46.042;14.472;2023-11-19T02:57:37;98451.50;;;2.56;85.03
9822;BME280;4950;46.042;14.472;2023-11-19T03:00:08;98451.63;;;2.42;85.87
9822;BME280;4950;46.042;14.472;2023-11-19T03:02:39;98454.22;;;2.66;85.66
9822;BME280;4950;46.042;14.472;2023-11-19T03:05:10;98461.38;;;2.85;85.27
9822;BME280;4950;46.042;14.472;2023-11-19T03:07:37;98443.84;;;2.91;85.32
9822;BME280;4950;46.042;14.472;2023-11-19T03:10:04;98427.88;;;2.99;84.27
9822;BME280;4950;46.042;14.472;2023-11-19T03:12:31;98421.97;;;3.21;83.35
9822;BME280;4950;46.042;14.472;2023-11-19T03:14:58;98420.47;;;3.30;82.72
9822;BME280;4950;46.042;14.472;2023-11-19T03:17:26;98422.34;;;3.39;82.46
9822;BME280;4950;46.042;14.472;2023-11-19T03:19:53;98413.84;;;3.50;81.49
9822;BME280;4950;46.042;14.472;2023-11-19T03:22:19;98416.66;;;3.47;81.72
9822;BME280;4950;46.042;14.472;2023-11-19T03:24:47;98414.41;;;3.53;81.86
9822;BME280;4950;46.042;14.472;2023-11-19T03:27:13;98416.97;;;3.53;81.74
9822;BME280;4950;46.042;14.472;2023-11-19T03:29:40;98425.63;;;3.52;81.33
9822;BME280;4950;46.042;14.472;2023-11-19T03:32:07;98413.84;;;3.50;81.37
9822;BME280;4950;46.042;14.472;2023-11-19T03:34:35;98398.09;;;3.54;81.78
9822;BME280;4950;46.042;14.472;2023-11-19T03:37:02;98399.50;;;3.47;81.73
9822;BME280;4950;46.042;14.472;2023-11-19T03:39:29;98380.13;;;3.32;81.83
9822;BME280;4950;46.042;14.472;2023-11-19T03:41:56;98378.59;;;3.18;82.79
9822;BME280;4950;46.042;14.472;2023-11-19T03:44:22;98370.47;;;3.24;82.71
9822;BME280;4950;46.042;14.472;2023-11-19T03:46:51;98375.91;;;3.20;83.17
9822;BME280;4950;46.042;14.472;2023-11-19T03:49:18;98376.50;;;3.23;82.83
9822;BME280;4950;46.042;14.472;2023-11-19T03:51:46;98381.72;;;3.10;82.21
9822;BME280;4950;46.042;14.472;2023-11-19T03:54:15;98392.97;;;3.21;82.71
9822;BME280;4950;46.042;14.472;2023-11-19T03:56:42;98399.50;;;3.25;82.95
9822;BME280;4950;46.042;14.472;2023-11-19T03:59:09;98392.50;;;3.38;82.31
9822;BME280;4950;46.042;14.472;2023-11-19T04:01:35;98383.53;;;3.32;82.25
9822;BME280;4950;46.042;14.472;2023-11-19T04:04:03;98384.66;;;3.17;81.94
9822;BME280;4950;46.042;14.472;2023-11-19T04:06:31;98381.03;;;3.20;82.31
9822;BME280;4950;46.042;14.472;2023-11-19T04:08:59;98374.63;;;3.14;81.55
9822;BME280;4950;46.042;14.472;2023-11-19T04:11:26;98381.53;;;3.25;81.85
9822;BME280;4950;46.042;14.472;2023-11-19T04:13:53;98381.28;;;3.28;81.53
9822;BME280;4950;46.042;14.472;2023-11-19T04:16:25;98375.94;;;3.42;81.63
9822;BME280;4950;46.042;14.472;2023-11-19T04:18:53;98373.59;;;3.39;81.84
9822;BME280;4950;46.042;14.472;2023-11-19T04:21:19;98376.63;;;3.33;81.86
9822;BME280;4950;46.042;14.472;2023-11-19T04:23:48;98380.72;;;3.47;81.82
9822;BME280;4950;46.042;14.472;2023-11-19T04:26:16;98371.63;;;3.43;81.92
9822;BME280;4950;46.042;14.472;2023-11-19T04:28:43;98367.28;;;3.32;82.39
9822;BME280;4950;46.042;14.472;2023-11-19T04:31:09;98367.75;;;3.37;82.36
9822;BME280;4950;46.042;14.472;2023-11-19T04:33:36;98365.22;;;3.48;81.51
9822;BME280;4950;46.042;14.472;2023-11-19T04:36:03;98381.06;;;3.42;81.75
9822;BME280;4950;46.042;14.472;2023-11-19T04:38:30;98373.59;;;3.39;82.56
9822;BME280;4950;46.042;14.472;2023-11-19T04:40:57;98369.63;;;3.46;82.10
9822;BME280;4950;46.042;14.472;2023-11-19T04:43:25;98389.59;;;3.43;82.24
9822;BME280;4950;46.042;14.472;2023-11-19T04:45:52;98387.94;;;3.42;82.52
9822;BME280;4950;46.042;14.472;2023-11-19T04:48:19;98377.44;;;3.45;82.43
9822;BME280;4950;46.042;14.472;2023-11-19T04:50:45;98375.34;;;3.39;82.86
9822;BME280;4950;46.042;14.472;2023-11-19T04:53:12;98382.47;;;3.35;83.28
9822;BME280;4950;46.042;14.472;2023-11-19T04:55:40;98376.16;;;3.39;83.12
9822;BME280;4950;46.042;14.472;2023-11-19T04:58:07;98379.53;;;3.40;82.88
9822;BME280;4950;46.042;14.472;2023-11-19T05:00:35;98363.31;;;3.28;83.00
9822;BME280;4950;46.042;14.472;2023-11-19T05:03:02;98351.19;;;3.30;83.52
9822;BME280;4950;46.042;14.472;2023-11-19T05:05:29;98345.47;;;3.38;82.55
9822;BME280;4950;46.042;14.472;2023-11-19T05:07:56;98332.75;;;3.47;83.32
9822;BME280;4950;46.042;14.472;2023-11-19T05:10:23;98333.34;;;3.51;83.10
9822;BME280;4950;46.042;14.472;2023-11-19T05:12:50;98327.75;;;3.57;82.88
9822;BME280;4950;46.042;14.472;2023-11-19T05:15:17;98321.91;;;3.66;82.54
9822;BME280;4950;46.042;14.472;2023-11-19T05:17:45;98316.09;;;3.53;83.28
9822;BME280;4950;46.042;14.472;2023-11-19T05:20:12;98308.41;;;3.30;83.55
9822;BME280;4950;46.042;14.472;2023-11-19T05:22:40;98302.13;;;3.34;83.99
9822;BME280;4950;46.042;14.472;2023-11-19T05:25:07;98295.34;;;3.45;84.12
9822;BME280;4950;46.042;14.472;2023-11-19T05:27:34;98294.03;;;3.50;84.22
9822;BME280;4950;46.042;14.472;2023-11-19T05:30:01;98298.91;;;3.65;83.52
9822;BME280;4950;46.042;14.472;2023-11-19T05:32:28;98303.44;;;3.72;83.54
9822;BME280;4950;46.042;14.472;2023-11-19T05:34:56;98304.16;;;3.63;83.26
9822;BME280;4950;46.042;14.472;2023-11-19T05:37:22;98302.31;;;3.65;83.49
9822;BME280;4950;46.042;14.472;2023-11-19T05:39:50;98300.78;;;3.63;82.65
9822;BME280;4950;46.042;14.472;2023-11-19T05:42:17;98288.53;;;3.55;83.91
9822;BME280;4950;46.042;14.472;2023-11-19T05:44:44;98282.59;;;3.54;83.41
9822;BME280;4950;46.042;14.472;2023-11-19T05:47:11;98275.97;;;3.41;82.91
9822;BME280;4950;46.042;14.472;2023-11-19T05:49:38;98279.84;;;3.35;83.92
9822;BME280;4950;46.042;14.472;2023-11-19T05:52:06;98290.09;;;3.46;83.74
9822;BME280;4950;46.042;14.472;2023-11-19T05:54:35;98304.78;;;3.55;84.01
9822;BME280;4950;46.042;14.472;2023-11-19T05:57:03;98320.50;;;3.62;83.79
9822;BME280;4950;46.042;14.472;2023-11-19T05:59:30;98304.75;;;3.67;83.55
9822;BME280;4950;46.042;14.472;2023-11-19T06:01:58;98288.63;;;3.65;84.11
9822;BME280;4950;46.042;14.472;2023-11-19T06:04:25;98298.59;;;3.58;83.89
9822;BME280;4950;46.042;14.472;2023-11-19T06:06:52;98298.59;;;3.58;84.05
9822;BME280;4950;46.042;14.472;2023-11-19T06:09:21;98302.16;;;3.67;83.62
9822;BME280;4950;46.042;14.472;2023-11-19T06:11:49;98312.44;;;3.78;83.00
9822;BME280;4950;46.042;14.472;2023-11-19T06:14:16;98304.13;;;3.86;82.79
9822;BME280;4950;46.042;14.472;2023-11-19T06:16:43;98305.06;;;3.85;83.12
9822;BME280;4950;46.042;14.472;2023-11-19T06:19:09;98300.16;;;3.82;83.84
9822;BME280;4950;46.042;14.472;2023-11-19T06:21:39;98302.34;;;3.86;83.78
9822;BME280;4950;46.042;14.472;2023-11-19T06:24:06;98315.06;;;3.99;83.10
9822;BME280;4950;46.042;14.472;2023-11-19T06:26:35;98324.53;;;3.99;83.01
9822;BME280;4950;46.042;14.472;2023-11-19T06:29:02;98313.09;;;3.91;83.21
9822;BME280;4950;46.042;14.472;2023-11-19T06:31:29;98309.56;;;3.92;83.62
9822;BME280;4950;46.042;14.472;2023-11-19T06:33:56;98328.81;;;3.98;82.88
9822;BME280;4950;46.042;14.472;2023-11-19T06:36:23;98340.06;;;3.97;82.92
9822;BME280;4950;46.042;14.472;2023-11-19T06:38:49;98331.41;;;3.98;83.29
9822;BME280;4950;46.042;14.472;2023-11-19T06:41:16;98323.56;;;4.00;83.11
9822;BME280;4950;46.042;14.472;2023-11-19T06:43:44;98330.59;;;3.98;83.40
9822;BME280;4950;46.042;14.472;2023-11-19T06:46:15;98324.53;;;3.99;83.00
9822;BME280;4950;46.042;14.472;2023-11-19T06:48:41;98327.56;;;3.92;83.12
9822;BME280;4950;46.042;14.472;2023-11-19T06:51:09;98335.63;;;3.88;83.48
9822;BME280;4950;46.042;14.472;2023-11-19T06:53:36;98314.28;;;3.87;83.53
9822;BME280;4950;46.042;14.472;2023-11-19T06:56:03;98309.06;;;3.78;83.91
9822;BME280;4950;46.042;14.472;2023-11-19T06:58:31;98312.69;;;3.64;84.42
9822;BME280;4950;46.042;14.472;2023-11-19T07:01:01;98296.66;;;3.16;85.35
9822;BME280;4950;46.042;14.472;2023-11-19T07:03:28;98302.44;;;2.96;88.33
9822;BME280;4950;46.042;14.472;2023-11-19T07:05:54;98289.28;;;2.78;88.77
9822;BME280;4950;46.042;14.472;2023-11-19T07:08:21;98308.97;;;2.89;89.09
9822;BME280;4950;46.042;14.472;2023-11-19T07:10:48;98315.03;;;3.10;88.82
9822;BME280;4950;46.042;14.472;2023-11-19T07:13:15;98304.09;;;3.31;88.59
9822;BME280;4950;46.042;14.472;2023-11-19T07:15:41;98299.19;;;3.50;87.12
9822;BME280;4950;46.042;14.472;2023-11-19T07:18:10;98301.72;;;3.62;86.94
9822;BME280;4950;46.042;14.472;2023-11-19T07:20:37;98303.25;;;3.42;86.76
9822;BME280;4950;46.042;14.472;2023-11-19T07:23:05;98309.44;;;3.50;86.97
9822;BME280;4950;46.042;14.472;2023-11-19T07:25:32;98293.72;;;3.44;87.14
9822;BME280;4950;46.042;14.472;2023-11-19T07:28:02;98296.72;;;3.38;87.44
9822;BME280;4950;46.042;14.472;2023-11-19T07:30:29;98300.00;;;3.40;88.04
9822;BME280;4950;46.042;14.472;2023-11-19T07:32:56;98303.41;;;3.29;88.26
9822;BME280;4950;46.042;14.472;2023-11-19T07:35:24;98295.34;;;3.45;88.10
9822;BME280;4950;46.042;14.472;2023-11-19T07:37:51;98280.72;;;3.56;87.88
9822;BME280;4950;46.042;14.472;2023-11-19T07:40:18;98279.66;;;3.70;87.52
9822;BME280;4950;46.042;14.472;2023-11-19T07:42:45;98287.34;;;3.70;87.51
9822;BME280;4950;46.042;14.472;2023-11-19T07:45:12;98288.63;;;3.65;87.19
9822;BME280;4950;46.042;14.472;2023-11-19T07:47:38;98286.53;;;3.70;86.85
9822;BME280;4950;46.042;14.472;2023-11-19T07:50:06;98291.19;;;3.76;87.21
9822;BME280;4950;46.042;14.472;2023-11-19T07:52:34;98286.38;;;3.83;86.73
9822;BME280;4950;46.042;14.472;2023-11-19T07:55:01;98281.59;;;3.89;86.73
9822;BME280;4950;46.042;14.472;2023-11-19T07:57:27;98287.31;;;3.93;86.69
9822;BME280;4950;46.042;14.472;2023-11-19T07:59:56;98293.94;;;3.95;86.37
9822;BME280;4950;46.042;14.472;2023-11-19T08:02:23;98292.13;;;4.07;86.37
9822;BME280;4950;46.042;14.472;2023-11-19T08:04:50;98293.44;;;4.02;86.18
9822;BME280;4950;46.042;14.472;2023-11-19T08:07:17;98293.19;;;4.16;85.91
9822;BME280;4950;46.042;14.472;2023-11-19T08:09:45;98292.59;;;4.12;86.63
9822;BME280;4950;46.042;14.472;2023-11-19T08:12:12;98291.28;;;4.18;86.25
9822;BME280;4950;46.042;14.472;2023-11-19T08:14:40;98273.38;;;4.28;86.17
9822;BME280;4950;46.042;14.472;2023-11-19T08:17:06;98275.00;;;4.29;86.29
9822;BME280;4950;46.042;14.472;2023-11-19T08:19:33;98271.00;;;4.36;86.47
9822;BME280;4950;46.042;14.472;2023-11-19T08:22:00;98271.81;;;4.37;86.57
9822;BME280;4950;46.042;14.472;2023-11-19T08:24:27;98267.41;;;4.48;86.11
9822;BME280;4950;46.042;14.472;2023-11-19T08:26:55;98270.09;;;4.47;85.67
9822;BME280;4950;46.042;14.472;2023-11-19T08:29:22;98248.06;;;4.44;85.17
9822;BME280;4950;46.042;14.472;2023-11-19T08:31:48;98254.06;;;4.33;84.59
9822;BME280;4950;46.042;14.472;2023-11-19T08:34:15;98250.50;;;4.25;85.02
9822;BME280;4950;46.042;14.472;2023-11-19T08:36:42;98252.69;;;4.29;85.80
9822;BME280;4950;46.042;14.472;2023-11-19T08:39:08;98263.84;;;4.40;86.21
9822;BME280;4950;46.042;14.472;2023-11-19T08:41:35;98271.69;;;4.59;86.27
9822;BME280;4950;46.042;14.472;2023-11-19T08:44:04;98271.47;;;4.72;85.46
9822;BME280;4950;46.042;14.472;2023-11-19T08:46:31;98272.22;;;4.84;84.55
9822;BME280;4950;46.042;14.472;2023-11-19T08:48:58;98267.91;;;4.94;82.70
9822;BME280;4950;46.042;14.472;2023-11-19T08:51:25;98279.00;;;5.16;81.71
9822;BME280;4950;46.042;14.472;2023-11-19T08:53:53;98277.81;;;5.20;81.65
9822;BME280;4950;46.042;14.472;2023-11-19T08:56:21;98266.19;;;5.25;81.25
9822;BME280;4950;46.042;14.472;2023-11-19T08:58:47;98266.94;;;5.16;80.84
9822;BME280;4950;46.042;14.472;2023-11-19T09:01:15;98275.59;;;5.15;80.94
9822;BME280;4950;46.042;14.472;2023-11-19T09:03:42;98279.72;;;5.27;80.17
9822;BME280;4950;46.042;14.472;2023-11-19T09:06:09;98294.25;;;5.38;80.38
9822;BME280;4950;46.042;14.472;2023-11-19T09:08:35;98299.81;;;5.43;81.17
9822;BME280;4950;46.042;14.472;2023-11-19T09:11:06;98280.31;;;5.50;81.47
9822;BME280;4950;46.042;14.472;2023-11-19T09:13:34;98266.41;;;5.63;81.43
9822;BME280;4950;46.042;14.472;2023-11-19T09:16:00;98270.47;;;5.75;80.03
9822;BME280;4950;46.042;14.472;2023-11-19T09:18:30;98261.13;;;5.84;79.63
9822;BME280;4950;46.042;14.472;2023-11-19T09:20:57;98243.38;;;5.90;79.48
9822;BME280;4950;46.042;14.472;2023-11-19T09:23:23;98242.03;;;5.86;78.65
9822;BME280;4950;46.042;14.472;2023-11-19T09:25:51;98240.13;;;5.88;79.01
9822;BME280;4950;46.042;14.472;2023-11-19T09:28:18;98210.44;;;6.04;78.39
9822;BME280;4950;46.042;14.472;2023-11-19T09:30:47;98187.25;;;5.84;78.07
9822;BME280;4950;46.042;14.472;2023-11-19T09:33:16;98205.41;;;5.73;78.59
9822;BME280;4950;46.042;14.472;2023-11-19T09:35:44;98221.53;;;5.94;78.55
9822;BME280;4950;46.042;14.472;2023-11-19T09:38:10;98233.47;;;6.15;78.20
9822;BME280;4950;46.042;14.472;2023-11-19T09:40:37;98219.91;;;6.23;77.95
9822;BME280;4950;46.042;14.472;2023-11-19T09:43:05;98230.38;;;6.31;77.55
9822;BME280;4950;46.042;14.472;2023-11-19T09:45:32;98226.09;;;6.49;77.13
9822;BME280;4950;46.042;14.472;2023-11-19T09:48:04;98215.00;;;6.39;77.44
9822;BME280;4950;46.042;14.472;2023-11-19T09:50:31;98197.34;;;6.35;77.57
9822;BME280;4950;46.042;14.472;2023-11-19T09:52:59;98188.81;;;6.34;77.47
9822;BME280;4950;46.042;14.472;2023-11-19T09:55:25;98177.38;;;6.46;77.22
9822;BME280;4950;46.042;14.472;2023-11-19T09:57:52;98173.59;;;6.50;77.66
9822;BME280;4950;46.042;14.472;2023-11-19T10:00:20;98167.75;;;6.48;78.00
9822;BME280;4950;46.042;14.472;2023-11-19T10:02:48;98172.63;;;6.51;77.67
9822;BME280;4950;46.042;14.472;2023-11-19T10:05:16;98175.06;;;6.53;77.56
9822;BME280;4950;46.042;14.472;2023-11-19T10:07:43;98183.22;;;6.58;77.61
9822;BME280;4950;46.042;14.472;2023-11-19T10:10:12;98171.66;;;6.62;78.53
9822;BME280;4950;46.042;14.472;2023-11-19T10:12:43;98168.59;;;6.77;78.36
9822;BME280;4950;46.042;14.472;2023-11-19T10:15:17;98156.91;;;6.82;78.08
9822;BME280;4950;46.042;14.472;2023-11-19T10:17:46;98148.56;;;6.88;77.45
9822;BME280;4950;46.042;14.472;2023-11-19T10:20:13;98150.00;;;7.01;77.68
9822;BME280;4950;46.042;14.472;2023-11-19T10:22:39;98149.69;;;6.86;76.34
9822;BME280;4950;46.042;14.472;2023-11-19T10:25:23;98144.34;;;6.97;75.97
9822;BME280;4950;46.042;14.472;2023-11-19T10:27:50;98137.34;;;7.07;75.72
9822;BME280;4950;46.042;14.472;2023-11-19T10:30:18;98121.25;;;7.14;75.42
9822;BME280;4950;46.042;14.472;2023-11-19T10:32:45;98109.28;;;7.12;75.27
9822;BME280;4950;46.042;14.472;2023-11-19T10:35:11;98105.38;;;7.08;75.54
9822;BME280;4950;46.042;14.472;2023-11-19T10:37:38;98103.84;;;7.16;75.90
9822;BME280;4950;46.042;14.472;2023-11-19T10:40:07;98108.66;;;7.28;75.26
9822;BME280;4950;46.042;14.472;2023-11-19T10:42:37;98107.56;;;7.31;75.20
9822;BME280;4950;46.042;14.472;2023-11-19T10:45:04;98112.41;;;7.34;74.18
9822;BME280;4950;46.042;14.472;2023-11-19T10:47:32;98109.03;;;7.34;74.64
9822;BME280;4950;46.042;14.472;2023-11-19T10:50:02;98085.25;;;7.30;75.02
9822;BME280;4950;46.042;14.472;2023-11-19T10:52:30;98091.41;;;7.29;75.35
9822;BME280;4950;46.042;14.472;2023-11-19T10:55:00;98086.00;;;7.40;74.52
9822;BME280;4950;46.042;14.472;2023-11-19T10:57:30;98089.47;;;7.49;74.32
9822;BME280;4950;46.042;14.472;2023-11-19T11:00:02;98077.91;;;7.61;79.43
9822;BME280;4950;46.042;14.472;2023-11-19T11:02:30;98071.50;;;7.65;78.10
9822;BME280;4950;46.042;14.472;2023-11-19T11:05:01;98064.31;;;7.77;74.59
9822;BME280;4950;46.042;14.472;2023-11-19T11:07:31;98061.44;;;7.80;74.17
9822;BME280;4950;46.042;14.472;2023-11-19T11:09:58;98057.44;;;7.86;73.00
9822;BME280;4950;46.042;14.472;2023-11-19T11:12:26;98052.81;;;7.98;71.91
9822;BME280;4950;46.042;14.472;2023-11-19T11:14:53;98042.66;;;8.04;72.46
9822;BME280;4950;46.042;14.472;2023-11-19T11:17:24;98046.84;;;7.97;73.32
9822;BME280;4950;46.042;14.472;2023-11-19T11:19:53;98047.38;;;8.09;73.00
9822;BME280;4950;46.042;14.472;2023-11-19T11:22:22;98046.94;;;8.22;73.76
9822;BME280;4950;46.042;14.472;2023-11-19T11:25:06;98046.94;;;8.48;73.75
9822;BME280;4950;46.042;14.472;2023-11-19T11:28:05;98055.13;;;8.94;73.81
9822;BME280;4950;46.042;14.472;2023-11-19T11:30:46;98037.84;;;9.27;70.48
9822;BME280;4950;46.042;14.472;2023-11-19T11:33:26;98038.78;;;9.76;68.47
9822;BME280;4950;46.042;14.472;2023-11-19T11:36:06;98023.50;;;9.97;68.11
9822;BME280;4950;46.042;14.472;2023-11-19T11:38:40;98007.16;;;10.36;67.36
9822;BME280;4950;46.042;14.472;2023-11-19T11:41:18;98016.88;;;10.74;64.20
9822;BME280;4950;46.042;14.472;2023-11-19T11:43:46;98015.28;;;10.96;62.33
9822;BME280;4950;46.042;14.472;2023-11-19T11:49:25;97985.31;;;11.61;60.19
9822;BME280;4950;46.042;14.472;2023-11-19T11:52:00;97973.78;;;11.78;59.16
9822;BME280;4950;46.042;14.472;2023-11-19T11:54:29;97975.31;;;11.88;57.31
9822;BME280;4950;46.042;14.472;2023-11-19T11:57:07;97986.91;;;12.00;58.15
9822;BME280;4950;46.042;14.472;2023-11-19T11:59:43;97985.53;;;12.19;58.20
9822;BME280;4950;46.042;14.472;2023-11-19T12:02:13;97977.34;;;12.37;57.51
9822;BME280;4950;46.042;14.472;2023-11-19T12:04:41;97967.22;;;12.63;56.35
9822;BME280;4950;46.042;14.472;2023-11-19T12:07:12;97960.63;;;12.89;54.57
9822;BME280;4950;46.042;14.472;2023-11-19T12:09:40;97967.25;;;13.13;53.35
9822;BME280;4950;46.042;14.472;2023-11-19T12:12:11;97972.66;;;13.33;52.58
9822;BME280;4950;46.042;14.472;2023-11-19T12:15:00;97979.03;;;13.59;52.17
9822;BME280;4950;46.042;14.472;2023-11-19T12:17:44;97970.78;;;13.90;51.95
9822;BME280;4950;46.042;14.472;2023-11-19T12:20:16;97971.03;;;14.02;51.84
9822;BME280;4950;46.042;14.472;2023-11-19T12:22:44;97971.13;;;14.15;51.48
9822;BME280;4950;46.042;14.472;2023-11-19T12:25:12;97959.13;;;14.28;50.17
9822;BME280;4950;46.042;14.472;2023-11-19T12:27:41;97965.81;;;14.44;49.96
9822;BME280;4950;46.042;14.472;2023-11-19T12:30:08;97953.97;;;14.54;49.26
9822;BME280;4950;46.042;14.472;2023-11-19T12:32:42;97949.72;;;14.40;48.64
9822;BME280;4950;46.042;14.472;2023-11-19T12:35:10;97943.50;;;14.48;49.48
9822;BME280;4950;46.042;14.472;2023-11-19T12:37:43;97935.53;;;14.76;49.55
9822;BME280;4950;46.042;14.472;2023-11-19T12:40:17;97940.59;;;14.97;48.51
9822;BME280;4950;46.042;14.472;2023-11-19T12:42:44;97930.72;;;14.99;48.27
9822;BME280;4950;46.042;14.472;2023-11-19T12:45:11;97917.88;;;15.18;48.18
9822;BME280;4950;46.042;14.472;2023-11-19T12:47:39;97917.66;;;15.26;48.36
9822;BME280;4950;46.042;14.472;2023-11-19T12:50:06;97917.59;;;15.46;47.87
9822;BME280;4950;46.042;14.472;2023-11-19T12:52:34;97925.66;;;15.51;46.98
9822;BME280;4950;46.042;14.472;2023-11-19T12:55:03;97922.81;;;15.66;47.31
9822;BME280;4950;46.042;14.472;2023-11-19T12:57:37;97924.38;;;15.87;47.58
9822;BME280;4950;46.042;14.472;2023-11-19T13:00:05;97911.25;;;16.01;47.57
9822;BME280;4950;46.042;14.472;2023-11-19T13:02:45;97903.72;;;16.17;46.75
9822;BME280;4950;46.042;14.472;2023-11-19T13:05:26;97907.59;;;16.40;46.81
9822;BME280;4950;46.042;14.472;2023-11-19T13:08:00;97910.13;;;16.60;46.25
9822;BME280;4950;46.042;14.472;2023-11-19T13:10:29;97904.63;;;16.68;47.97
9822;BME280;4950;46.042;14.472;2023-11-19T13:13:04;97895.25;;;16.79;45.48
9822;BME280;4950;46.042;14.472;2023-11-19T13:15:32;97902.38;;;16.72;45.06
9822;BME280;4950;46.042;14.472;2023-11-19T13:17:59;97902.72;;;16.75;45.77
9822;BME280;4950;46.042;14.472;2023-11-19T13:20:25;97898.31;;;16.76;46.57
9822;BME280;4950;46.042;14.472;2023-11-19T13:22:57;97893.44;;;16.80;45.99
9822;BME280;4950;46.042;14.472;2023-11-19T13:25:24;97894.44;;;16.78;46.30
9822;BME280;4950;46.042;14.472;2023-11-19T13:27:52;97897.72;;;16.42;46.21
9822;BME280;4950;46.042;14.472;2023-11-19T13:30:19;97894.47;;;16.47;46.54